sensor_id;sensor_type;location;lat;lon;timestamp;P1;durP1;ratioP1;P2;durP2;ratioP2
27744;SDS011;61387;48.112;8.616;2023-06-22T00:01:15;14.87;;;8.63;;
27744;SDS011;61387;48.112;8.616;2023-06-22T00:03:41;16.70;;;9.02;;
27744;SDS011;61387;48.112;8.616;2023-06-22T00:06:06;18.33;;;8.60;;
27744;SDS011;61387;48.112;8.616;2023-06-22T00:08:32;14.43;;;9.10;;
27744;SDS011;61387;48.112;8.616;2023-06-22T00:10:58;13.10;;;8.53;;
27744;SDS011;61387;48.112;8.616;2023-06-22T00:13:25;15.50;;;8.50;;
27744;SDS011;61387;48.112;8.616;2023-06-22T00:15:50;13.50;;;8.70;;
27744;SDS011;61387;48.112;8.616;2023-06-22T00:18:16;13.43;;;8.57;;
27744;SDS011;61387;48.112;8.616;2023-06-22T00:20:42;18.63;;;9.63;;
27744;SDS011;61387;48.112;8.616;2023-06-22T00:23:10;16.43;;;9.93;;
27744;SDS011;61387;48.112;8.616;2023-06-22T00:25:40;18.37;;;9.47;;
27744;SDS011;61387;48.112;8.616;2023-06-22T00:28:05;13.60;;;9.13;;
27744;SDS011;61387;48.112;8.616;2023-06-22T00:30:32;17.10;;;8.93;;
27744;SDS011;61387;48.112;8.616;2023-06-22T00:32:59;19.33;;;9.47;;
27744;SDS011;61387;48.112;8.616;2023-06-22T00:35:25;16.37;;;9.10;;
27744;SDS011;61387;48.112;8.616;2023-06-22T00:37:54;17.10;;;9.67;;
27744;SDS011;61387;48.112;8.616;2023-06-22T00:40:25;14.03;;;8.30;;
27744;SDS011;61387;48.112;8.616;2023-06-22T00:42:51;15.10;;;8.73;;
27744;SDS011;61387;48.112;8.616;2023-06-22T00:45:16;14.33;;;8.70;;
27744;SDS011;61387;48.112;8.616;2023-06-22T00:47:42;19.93;;;9.43;;
27744;SDS011;61387;48.112;8.616;2023-06-22T00:50:09;16.77;;;9.30;;
27744;SDS011;61387;48.112;8.616;2023-06-22T00:52:43;19.87;;;9.40;;
27744;SDS011;61387;48.112;8.616;2023-06-22T00:55:11;17.13;;;8.93;;
27744;SDS011;61387;48.112;8.616;2023-06-22T00:57:37;16.03;;;8.43;;
27744;SDS011;61387;48.112;8.616;2023-06-22T01:00:03;17.63;;;10.23;;
27744;SDS011;61387;48.112;8.616;2023-06-22T01:02:34;15.90;;;9.23;;
27744;SDS011;61387;48.112;8.616;2023-06-22T01:05:01;13.27;;;8.63;;
27744;SDS011;61387;48.112;8.616;2023-06-22T01:07:31;14.23;;;9.33;;
27744;SDS011;61387;48.112;8.616;2023-06-22T01:10:07;16.48;;;9.10;;
27744;SDS011;61387;48.112;8.616;2023-06-22T01:12:51;19.73;;;9.47;;
27744;SDS011;61387;48.112;8.616;2023-06-22T01:15:25;14.73;;;9.17;;
27744;SDS011;61387;48.112;8.616;2023-06-22T01:17:56;15.07;;;8.40;;
27744;SDS011;61387;48.112;8.616;2023-06-22T01:20:22;18.70;;;8.93;;
27744;SDS011;61387;48.112;8.616;2023-06-22T01:22:55;15.73;;;7.83;;
27744;SDS011;61387;48.112;8.616;2023-06-22T01:25:31;13.57;;;8.00;;
27744;SDS011;61387;48.112;8.616;2023-06-22T01:31:23;12.60;;;7.77;;
27744;SDS011;61387;48.112;8.616;2023-06-22T01:33:53;11.83;;;7.63;;
27744;SDS011;61387;48.112;8.616;2023-06-22T01:36:22;12.87;;;7.80;;
27744;SDS011;61387;48.112;8.616;2023-06-22T01:38:48;15.30;;;8.90;;
27744;SDS011;61387;48.112;8.616;2023-06-22T01:41:16;13.18;;;8.35;;
27744;SDS011;61387;48.112;8.616;2023-06-22T01:43:42;11.67;;;7.50;;
27744;SDS011;61387;48.112;8.616;2023-06-22T01:46:09;13.33;;;7.80;;
27744;SDS011;61387;48.112;8.616;2023-06-22T01:48:36;14.73;;;7.87;;
27744;SDS011;61387;48.112;8.616;2023-06-22T01:51:02;16.90;;;8.40;;
27744;SDS011;61387;48.112;8.616;2023-06-22T01:53:28;12.90;;;7.85;;
27744;SDS011;61387;48.112;8.616;2023-06-22T01:55:55;15.67;;;9.40;;
27744;SDS011;61387;48.112;8.616;2023-06-22T01:58:21;18.77;;;10.43;;
27744;SDS011;61387;48.112;8.616;2023-06-22T02:00:53;16.70;;;9.83;;
27744;SDS011;61387;48.112;8.616;2023-06-22T02:03:34;15.90;;;10.73;;
27744;SDS011;61387;48.112;8.616;2023-06-22T02:06:03;15.50;;;10.43;;
27744;SDS011;61387;48.112;8.616;2023-06-22T02:08:41;19.53;;;11.50;;
27744;SDS011;61387;48.112;8.616;2023-06-22T02:11:16;15.20;;;10.63;;
27744;SDS011;61387;48.112;8.616;2023-06-22T02:13:45;17.42;;;9.77;;
27744;SDS011;61387;48.112;8.616;2023-06-22T02:16:11;14.57;;;9.77;;
27744;SDS011;61387;48.112;8.616;2023-06-22T02:18:39;16.17;;;10.47;;
27744;SDS011;61387;48.112;8.616;2023-06-22T02:21:11;16.50;;;10.17;;
27744;SDS011;61387;48.112;8.616;2023-06-22T02:23:37;13.63;;;9.30;;
27744;SDS011;61387;48.112;8.616;2023-06-22T02:26:02;17.60;;;9.70;;
27744;SDS011;61387;48.112;8.616;2023-06-22T02:28:29;14.70;;;10.70;;
27744;SDS011;61387;48.112;8.616;2023-06-22T02:30:54;15.10;;;9.93;;
27744;SDS011;61387;48.112;8.616;2023-06-22T02:33:20;17.00;;;9.97;;
27744;SDS011;61387;48.112;8.616;2023-06-22T02:35:46;13.73;;;9.97;;
27744;SDS011;61387;48.112;8.616;2023-06-22T02:38:14;16.27;;;10.03;;
27744;SDS011;61387;48.112;8.616;2023-06-22T02:40:40;15.77;;;10.70;;
27744;SDS011;61387;48.112;8.616;2023-06-22T02:43:06;15.30;;;10.60;;
27744;SDS011;61387;48.112;8.616;2023-06-22T02:45:32;13.13;;;9.87;;
27744;SDS011;61387;48.112;8.616;2023-06-22T02:47:58;13.40;;;9.77;;
27744;SDS011;61387;48.112;8.616;2023-06-22T02:50:24;14.33;;;9.20;;
27744;SDS011;61387;48.112;8.616;2023-06-22T02:52:49;17.30;;;10.10;;
27744;SDS011;61387;48.112;8.616;2023-06-22T02:55:15;19.47;;;9.70;;
27744;SDS011;61387;48.112;8.616;2023-06-22T02:57:41;22.00;;;9.70;;
27744;SDS011;61387;48.112;8.616;2023-06-22T03:00:09;17.10;;;10.00;;
27744;SDS011;61387;48.112;8.616;2023-06-22T03:02:44;17.47;;;9.00;;
27744;SDS011;61387;48.112;8.616;2023-06-22T03:05:11;14.20;;;8.97;;
27744;SDS011;61387;48.112;8.616;2023-06-22T03:07:38;15.03;;;9.07;;
27744;SDS011;61387;48.112;8.616;2023-06-22T03:10:04;17.77;;;9.33;;
27744;SDS011;61387;48.112;8.616;2023-06-22T03:12:30;15.60;;;8.97;;
27744;SDS011;61387;48.112;8.616;2023-06-22T03:14:56;17.03;;;9.17;;
27744;SDS011;61387;48.112;8.616;2023-06-22T03:17:23;17.87;;;8.30;;
27744;SDS011;61387;48.112;8.616;2023-06-22T03:19:49;13.53;;;8.70;;
27744;SDS011;61387;48.112;8.616;2023-06-22T03:22:14;15.13;;;9.43;;
27744;SDS011;61387;48.112;8.616;2023-06-22T03:24:40;13.30;;;8.60;;
27744;SDS011;61387;48.112;8.616;2023-06-22T03:27:06;12.93;;;8.23;;
27744;SDS011;61387;48.112;8.616;2023-06-22T03:29:32;14.53;;;9.23;;
27744;SDS011;61387;48.112;8.616;2023-06-22T03:31:57;15.50;;;9.07;;
27744;SDS011;61387;48.112;8.616;2023-06-22T03:34:23;18.07;;;9.60;;
27744;SDS011;61387;48.112;8.616;2023-06-22T03:36:49;17.03;;;9.03;;
27744;SDS011;61387;48.112;8.616;2023-06-22T03:39:15;16.43;;;9.53;;
27744;SDS011;61387;48.112;8.616;2023-06-22T03:41:41;15.97;;;9.13;;
27744;SDS011;61387;48.112;8.616;2023-06-22T03:44:06;15.37;;;9.73;;
27744;SDS011;61387;48.112;8.616;2023-06-22T03:46:35;18.03;;;9.40;;
27744;SDS011;61387;48.112;8.616;2023-06-22T03:49:01;13.23;;;8.83;;
27744;SDS011;61387;48.112;8.616;2023-06-22T03:51:28;16.70;;;10.05;;
27744;SDS011;61387;48.112;8.616;2023-06-22T03:53:54;12.97;;;9.00;;
27744;SDS011;61387;48.112;8.616;2023-06-22T03:56:20;18.27;;;10.40;;
27744;SDS011;61387;48.112;8.616;2023-06-22T03:58:46;15.60;;;10.33;;
27744;SDS011;61387;48.112;8.616;2023-06-22T04:01:12;17.03;;;10.37;;
27744;SDS011;61387;48.112;8.616;2023-06-22T04:03:38;20.70;;;9.65;;
27744;SDS011;61387;48.112;8.616;2023-06-22T04:06:04;18.23;;;9.60;;
27744;SDS011;61387;48.112;8.616;2023-06-22T04:08:30;15.90;;;9.60;;
27744;SDS011;61387;48.112;8.616;2023-06-22T04:10:55;16.67;;;9.47;;
27744;SDS011;61387;48.112;8.616;2023-06-22T04:13:21;15.80;;;9.90;;
27744;SDS011;61387;48.112;8.616;2023-06-22T04:15:47;13.70;;;8.43;;
27744;SDS011;61387;48.112;8.616;2023-06-22T04:18:13;15.03;;;8.67;;
27744;SDS011;61387;48.112;8.616;2023-06-22T04:20:39;12.77;;;9.30;;
27744;SDS011;61387;48.112;8.616;2023-06-22T04:23:05;15.20;;;9.17;;
27744;SDS011;61387;48.112;8.616;2023-06-22T04:25:30;11.60;;;8.07;;
27744;SDS011;61387;48.112;8.616;2023-06-22T04:27:56;18.67;;;9.50;;
27744;SDS011;61387;48.112;8.616;2023-06-22T04:30:22;16.97;;;8.23;;
27744;SDS011;61387;48.112;8.616;2023-06-22T04:32:48;13.75;;;8.57;;
27744;SDS011;61387;48.112;8.616;2023-06-22T04:35:21;15.63;;;9.13;;
27744;SDS011;61387;48.112;8.616;2023-06-22T04:37:47;20.60;;;9.73;;
27744;SDS011;61387;48.112;8.616;2023-06-22T04:40:14;20.57;;;9.70;;
27744;SDS011;61387;48.112;8.616;2023-06-22T04:42:40;16.40;;;10.10;;
27744;SDS011;61387;48.112;8.616;2023-06-22T04:45:17;14.53;;;9.87;;
27744;SDS011;61387;48.112;8.616;2023-06-22T04:47:43;13.67;;;9.00;;
27744;SDS011;61387;48.112;8.616;2023-06-22T04:50:10;14.98;;;9.63;;
27744;SDS011;61387;48.112;8.616;2023-06-22T04:52:39;18.27;;;9.87;;
27744;SDS011;61387;48.112;8.616;2023-06-22T04:55:05;14.30;;;9.57;;
27744;SDS011;61387;48.112;8.616;2023-06-22T04:57:31;15.30;;;9.57;;
27744;SDS011;61387;48.112;8.616;2023-06-22T04:59:58;15.17;;;9.13;;
27744;SDS011;61387;48.112;8.616;2023-06-22T05:02:36;17.83;;;10.35;;
27744;SDS011;61387;48.112;8.616;2023-06-22T05:05:02;15.70;;;9.87;;
27744;SDS011;61387;48.112;8.616;2023-06-22T05:07:32;18.25;;;11.25;;
27744;SDS011;61387;48.112;8.616;2023-06-22T05:10:01;20.10;;;12.60;;
27744;SDS011;61387;48.112;8.616;2023-06-22T05:12:27;16.40;;;10.57;;
27744;SDS011;61387;48.112;8.616;2023-06-22T05:14:54;17.30;;;10.45;;
27744;SDS011;61387;48.112;8.616;2023-06-22T05:17:19;19.43;;;10.80;;
27744;SDS011;61387;48.112;8.616;2023-06-22T05:19:45;17.93;;;11.00;;
27744;SDS011;61387;48.112;8.616;2023-06-22T05:22:14;16.30;;;10.95;;
27744;SDS011;61387;48.112;8.616;2023-06-22T05:24:40;15.77;;;10.73;;
27744;SDS011;61387;48.112;8.616;2023-06-22T05:27:06;15.87;;;11.20;;
27744;SDS011;61387;48.112;8.616;2023-06-22T05:29:32;17.03;;;11.63;;
27744;SDS011;61387;48.112;8.616;2023-06-22T05:31:57;20.03;;;11.70;;
27744;SDS011;61387;48.112;8.616;2023-06-22T05:34:23;17.85;;;12.37;;
27744;SDS011;61387;48.112;8.616;2023-06-22T05:36:49;15.50;;;11.85;;
27744;SDS011;61387;48.112;8.616;2023-06-22T05:39:15;17.52;;;12.20;;
27744;SDS011;61387;48.112;8.616;2023-06-22T05:41:41;18.37;;;11.90;;
27744;SDS011;61387;48.112;8.616;2023-06-22T05:44:08;19.08;;;12.07;;
27744;SDS011;61387;48.112;8.616;2023-06-22T05:46:34;19.10;;;11.97;;
27744;SDS011;61387;48.112;8.616;2023-06-22T05:49:00;19.37;;;12.23;;
27744;SDS011;61387;48.112;8.616;2023-06-22T05:51:25;17.47;;;12.13;;
27744;SDS011;61387;48.112;8.616;2023-06-22T05:53:51;19.67;;;12.43;;
27744;SDS011;61387;48.112;8.616;2023-06-22T05:56:17;15.73;;;11.10;;
27744;SDS011;61387;48.112;8.616;2023-06-22T05:58:43;19.40;;;11.70;;
27744;SDS011;61387;48.112;8.616;2023-06-22T06:01:09;14.55;;;11.02;;
27744;SDS011;61387;48.112;8.616;2023-06-22T06:03:35;14.25;;;10.60;;
27744;SDS011;61387;48.112;8.616;2023-06-22T06:06:06;16.00;;;11.48;;
27744;SDS011;61387;48.112;8.616;2023-06-22T06:08:32;18.00;;;11.68;;
27744;SDS011;61387;48.112;8.616;2023-06-22T06:10:57;15.37;;;10.63;;
27744;SDS011;61387;48.112;8.616;2023-06-22T06:13:23;17.23;;;11.98;;
27744;SDS011;61387;48.112;8.616;2023-06-22T06:15:49;18.70;;;12.03;;
27744;SDS011;61387;48.112;8.616;2023-06-22T06:18:16;17.27;;;12.07;;
27744;SDS011;61387;48.112;8.616;2023-06-22T06:20:42;20.50;;;11.75;;
27744;SDS011;61387;48.112;8.616;2023-06-22T06:23:08;17.25;;;11.68;;
27744;SDS011;61387;48.112;8.616;2023-06-22T06:25:34;15.73;;;11.60;;
27744;SDS011;61387;48.112;8.616;2023-06-22T06:28:00;17.30;;;11.27;;
27744;SDS011;61387;48.112;8.616;2023-06-22T06:30:25;13.67;;;10.30;;
27744;SDS011;61387;48.112;8.616;2023-06-22T06:32:51;15.65;;;10.73;;
27744;SDS011;61387;48.112;8.616;2023-06-22T06:35:17;15.73;;;11.30;;
27744;SDS011;61387;48.112;8.616;2023-06-22T06:37:49;16.87;;;11.35;;
27744;SDS011;61387;48.112;8.616;2023-06-22T06:40:16;14.63;;;10.48;;
27744;SDS011;61387;48.112;8.616;2023-06-22T06:42:46;15.73;;;10.95;;
27744;SDS011;61387;48.112;8.616;2023-06-22T06:45:14;14.70;;;10.50;;
27744;SDS011;61387;48.112;8.616;2023-06-22T06:47:41;15.65;;;10.00;;
27744;SDS011;61387;48.112;8.616;2023-06-22T06:50:08;14.77;;;9.35;;
27744;SDS011;61387;48.112;8.616;2023-06-22T06:52:36;13.98;;;9.50;;
27744;SDS011;61387;48.112;8.616;2023-06-22T06:55:01;16.40;;;12.13;;
27744;SDS011;61387;48.112;8.616;2023-06-22T06:57:29;16.70;;;10.00;;
27744;SDS011;61387;48.112;8.616;2023-06-22T06:59:55;14.13;;;9.63;;
27744;SDS011;61387;48.112;8.616;2023-06-22T07:02:22;13.55;;;9.55;;
27744;SDS011;61387;48.112;8.616;2023-06-22T07:04:48;18.35;;;9.65;;
27744;SDS011;61387;48.112;8.616;2023-06-22T07:07:14;16.12;;;9.00;;
27744;SDS011;61387;48.112;8.616;2023-06-22T07:09:39;16.30;;;9.90;;
27744;SDS011;61387;48.112;8.616;2023-06-22T07:12:05;15.23;;;9.35;;
27744;SDS011;61387;48.112;8.616;2023-06-22T07:14:31;20.15;;;10.38;;
27744;SDS011;61387;48.112;8.616;2023-06-22T07:16:57;15.53;;;8.40;;
27744;SDS011;61387;48.112;8.616;2023-06-22T07:19:27;13.93;;;8.18;;
27744;SDS011;61387;48.112;8.616;2023-06-22T07:21:55;17.37;;;8.30;;
27744;SDS011;61387;48.112;8.616;2023-06-22T07:24:21;14.90;;;9.07;;
27744;SDS011;61387;48.112;8.616;2023-06-22T07:26:48;15.10;;;9.50;;
27744;SDS011;61387;48.112;8.616;2023-06-22T07:29:15;14.70;;;8.30;;
27744;SDS011;61387;48.112;8.616;2023-06-22T07:31:48;11.65;;;7.97;;
27744;SDS011;61387;48.112;8.616;2023-06-22T07:34:16;14.50;;;7.47;;
27744;SDS011;61387;48.112;8.616;2023-06-22T07:36:42;15.23;;;8.67;;
27744;SDS011;61387;48.112;8.616;2023-06-22T07:39:08;14.75;;;8.05;;
27744;SDS011;61387;48.112;8.616;2023-06-22T07:41:34;14.07;;;7.20;;
27744;SDS011;61387;48.112;8.616;2023-06-22T07:44:01;12.87;;;7.97;;
27744;SDS011;61387;48.112;8.616;2023-06-22T07:46:28;17.02;;;8.70;;
27744;SDS011;61387;48.112;8.616;2023-06-22T07:48:55;15.55;;;8.13;;
27744;SDS011;61387;48.112;8.616;2023-06-22T07:51:21;14.75;;;8.98;;
27744;SDS011;61387;48.112;8.616;2023-06-22T07:53:47;15.83;;;8.67;;
27744;SDS011;61387;48.112;8.616;2023-06-22T07:56:13;16.50;;;9.13;;
27744;SDS011;61387;48.112;8.616;2023-06-22T07:58:43;14.98;;;9.10;;
27744;SDS011;61387;48.112;8.616;2023-06-22T08:01:09;15.13;;;8.67;;
27744;SDS011;61387;48.112;8.616;2023-06-22T08:03:36;16.27;;;8.95;;
27744;SDS011;61387;48.112;8.616;2023-06-22T08:06:02;11.20;;;7.57;;
27744;SDS011;61387;48.112;8.616;2023-06-22T08:08:27;13.80;;;8.10;;
27744;SDS011;61387;48.112;8.616;2023-06-22T08:10:53;17.77;;;8.17;;
27744;SDS011;61387;48.112;8.616;2023-06-22T08:13:19;13.60;;;8.10;;
27744;SDS011;61387;48.112;8.616;2023-06-22T08:15:45;14.90;;;8.03;;
27744;SDS011;61387;48.112;8.616;2023-06-22T08:18:11;14.80;;;8.35;;
27744;SDS011;61387;48.112;8.616;2023-06-22T08:20:36;16.85;;;9.45;;
27744;SDS011;61387;48.112;8.616;2023-06-22T08:23:02;12.87;;;8.47;;
27744;SDS011;61387;48.112;8.616;2023-06-22T08:25:34;13.52;;;8.73;;
27744;SDS011;61387;48.112;8.616;2023-06-22T08:28:01;14.35;;;9.05;;
27744;SDS011;61387;48.112;8.616;2023-06-22T08:30:28;15.02;;;7.95;;
27744;SDS011;61387;48.112;8.616;2023-06-22T08:32:53;17.93;;;7.60;;
27744;SDS011;61387;48.112;8.616;2023-06-22T08:35:20;14.07;;;8.65;;
27744;SDS011;61387;48.112;8.616;2023-06-22T08:37:47;16.35;;;7.65;;
27744;SDS011;61387;48.112;8.616;2023-06-22T08:40:16;11.50;;;6.65;;
27744;SDS011;61387;48.112;8.616;2023-06-22T08:42:42;13.63;;;6.83;;
27744;SDS011;61387;48.112;8.616;2023-06-22T08:45:08;12.00;;;6.70;;
27744;SDS011;61387;48.112;8.616;2023-06-22T08:47:35;14.85;;;6.82;;
27744;SDS011;61387;48.112;8.616;2023-06-22T08:50:01;14.70;;;7.00;;
27744;SDS011;61387;48.112;8.616;2023-06-22T08:52:28;12.40;;;6.87;;
27744;SDS011;61387;48.112;8.616;2023-06-22T08:54:54;11.93;;;6.97;;
27744;SDS011;61387;48.112;8.616;2023-06-22T08:57:20;14.48;;;6.68;;
27744;SDS011;61387;48.112;8.616;2023-06-22T08:59:50;13.68;;;6.80;;
27744;SDS011;61387;48.112;8.616;2023-06-22T09:02:17;13.43;;;7.37;;
27744;SDS011;61387;48.112;8.616;2023-06-22T09:04:45;11.45;;;7.07;;
27744;SDS011;61387;48.112;8.616;2023-06-22T09:07:11;10.38;;;6.18;;
27744;SDS011;61387;48.112;8.616;2023-06-22T09:09:37;12.33;;;6.53;;
27744;SDS011;61387;48.112;8.616;2023-06-22T09:12:03;11.63;;;6.57;;
27744;SDS011;61387;48.112;8.616;2023-06-22T09:14:29;11.70;;;6.53;;
27744;SDS011;61387;48.112;8.616;2023-06-22T09:16:55;12.90;;;6.47;;
27744;SDS011;61387;48.112;8.616;2023-06-22T09:19:21;12.90;;;6.47;;
27744;SDS011;61387;48.112;8.616;2023-06-22T09:21:46;13.20;;;6.37;;
27744;SDS011;61387;48.112;8.616;2023-06-22T09:24:12;12.88;;;5.95;;
27744;SDS011;61387;48.112;8.616;2023-06-22T09:26:38;14.17;;;6.70;;
27744;SDS011;61387;48.112;8.616;2023-06-22T09:29:07;11.35;;;6.18;;
27744;SDS011;61387;48.112;8.616;2023-06-22T09:31:32;11.00;;;5.97;;
27744;SDS011;61387;48.112;8.616;2023-06-22T09:33:58;14.03;;;6.43;;
27744;SDS011;61387;48.112;8.616;2023-06-22T09:36:24;15.57;;;6.97;;
27744;SDS011;61387;48.112;8.616;2023-06-22T09:38:49;13.57;;;7.17;;
27744;SDS011;61387;48.112;8.616;2023-06-22T09:41:23;12.90;;;7.07;;
27744;SDS011;61387;48.112;8.616;2023-06-22T09:43:49;10.85;;;6.70;;
27744;SDS011;61387;48.112;8.616;2023-06-22T09:46:15;15.47;;;6.77;;
27744;SDS011;61387;48.112;8.616;2023-06-22T09:48:41;15.30;;;7.80;;
27744;SDS011;61387;48.112;8.616;2023-06-22T09:51:07;12.47;;;6.70;;
27744;SDS011;61387;48.112;8.616;2023-06-22T09:53:33;13.60;;;6.77;;
27744;SDS011;61387;48.112;8.616;2023-06-22T09:56:03;14.20;;;6.72;;
27744;SDS011;61387;48.112;8.616;2023-06-22T09:58:28;10.93;;;6.57;;
27744;SDS011;61387;48.112;8.616;2023-06-22T10:00:54;15.83;;;6.67;;
27744;SDS011;61387;48.112;8.616;2023-06-22T10:03:20;14.18;;;7.35;;
27744;SDS011;61387;48.112;8.616;2023-06-22T10:05:46;16.37;;;6.72;;
27744;SDS011;61387;48.112;8.616;2023-06-22T10:08:12;15.18;;;6.82;;
27744;SDS011;61387;48.112;8.616;2023-06-22T10:10:38;13.80;;;6.50;;
27744;SDS011;61387;48.112;8.616;2023-06-22T10:13:08;11.30;;;6.20;;
27744;SDS011;61387;48.112;8.616;2023-06-22T10:15:37;15.80;;;6.40;;
27744;SDS011;61387;48.112;8.616;2023-06-22T10:18:03;17.10;;;6.83;;
27744;SDS011;61387;48.112;8.616;2023-06-22T10:20:29;12.98;;;6.82;;
27744;SDS011;61387;48.112;8.616;2023-06-22T10:22:55;12.70;;;6.43;;
27744;SDS011;61387;48.112;8.616;2023-06-22T10:25:21;12.97;;;6.97;;
27744;SDS011;61387;48.112;8.616;2023-06-22T10:27:47;13.05;;;6.62;;
27744;SDS011;61387;48.112;8.616;2023-06-22T10:30:13;13.17;;;6.53;;
27744;SDS011;61387;48.112;8.616;2023-06-22T10:32:39;14.45;;;6.68;;
27744;SDS011;61387;48.112;8.616;2023-06-22T10:35:06;13.30;;;7.05;;
27744;SDS011;61387;48.112;8.616;2023-06-22T10:37:32;13.05;;;6.32;;
27744;SDS011;61387;48.112;8.616;2023-06-22T10:39:57;13.30;;;5.93;;
27744;SDS011;61387;48.112;8.616;2023-06-22T10:42:24;19.90;;;6.97;;
27744;SDS011;61387;48.112;8.616;2023-06-22T10:44:49;12.90;;;6.43;;
27744;SDS011;61387;48.112;8.616;2023-06-22T10:47:15;11.87;;;6.50;;
27744;SDS011;61387;48.112;8.616;2023-06-22T10:49:41;11.27;;;6.20;;
27744;SDS011;61387;48.112;8.616;2023-06-22T10:52:08;13.02;;;6.60;;
27744;SDS011;61387;48.112;8.616;2023-06-22T10:54:37;15.15;;;7.10;;
27744;SDS011;61387;48.112;8.616;2023-06-22T10:57:03;12.50;;;6.25;;
27744;SDS011;61387;48.112;8.616;2023-06-22T10:59:28;13.97;;;6.80;;
27744;SDS011;61387;48.112;8.616;2023-06-22T11:01:58;16.00;;;7.00;;
27744;SDS011;61387;48.112;8.616;2023-06-22T11:04:24;15.77;;;6.80;;
27744;SDS011;61387;48.112;8.616;2023-06-22T11:06:50;15.43;;;6.87;;
27744;SDS011;61387;48.112;8.616;2023-06-22T11:09:16;15.15;;;6.72;;
27744;SDS011;61387;48.112;8.616;2023-06-22T11:11:45;12.35;;;6.68;;
27744;SDS011;61387;48.112;8.616;2023-06-22T11:14:11;13.18;;;7.25;;
27744;SDS011;61387;48.112;8.616;2023-06-22T11:16:37;12.33;;;6.47;;
27744;SDS011;61387;48.112;8.616;2023-06-22T11:19:04;14.02;;;6.90;;
27744;SDS011;61387;48.112;8.616;2023-06-22T11:21:30;17.27;;;7.10;;
27744;SDS011;61387;48.112;8.616;2023-06-22T11:23:56;11.60;;;6.23;;
27744;SDS011;61387;48.112;8.616;2023-06-22T11:26:22;14.70;;;6.77;;
27744;SDS011;61387;48.112;8.616;2023-06-22T11:28:48;15.90;;;6.77;;
27744;SDS011;61387;48.112;8.616;2023-06-22T11:31:14;11.87;;;6.53;;
27744;SDS011;61387;48.112;8.616;2023-06-22T11:33:39;15.13;;;6.90;;
27744;SDS011;61387;48.112;8.616;2023-06-22T11:36:05;15.07;;;7.15;;
27744;SDS011;61387;48.112;8.616;2023-06-22T11:38:31;14.55;;;7.00;;
27744;SDS011;61387;48.112;8.616;2023-06-22T11:40:58;14.85;;;7.10;;
27744;SDS011;61387;48.112;8.616;2023-06-22T11:43:24;13.27;;;6.40;;
27744;SDS011;61387;48.112;8.616;2023-06-22T11:45:50;12.30;;;6.32;;
27744;SDS011;61387;48.112;8.616;2023-06-22T11:48:16;12.43;;;7.17;;
27744;SDS011;61387;48.112;8.616;2023-06-22T11:50:42;14.43;;;7.37;;
27744;SDS011;61387;48.112;8.616;2023-06-22T11:53:08;13.73;;;6.97;;
27744;SDS011;61387;48.112;8.616;2023-06-22T11:55:34;14.83;;;6.93;;
27744;SDS011;61387;48.112;8.616;2023-06-22T11:58:00;14.00;;;5.70;;
27744;SDS011;61387;48.112;8.616;2023-06-22T12:00:28;14.40;;;7.03;;
27744;SDS011;61387;48.112;8.616;2023-06-22T12:02:54;15.63;;;7.50;;
27744;SDS011;61387;48.112;8.616;2023-06-22T12:05:21;13.60;;;7.00;;
27744;SDS011;61387;48.112;8.616;2023-06-22T12:07:47;14.77;;;7.28;;
27744;SDS011;61387;48.112;8.616;2023-06-22T12:10:13;11.57;;;5.80;;
27744;SDS011;61387;48.112;8.616;2023-06-22T12:12:39;13.10;;;5.85;;
27744;SDS011;61387;48.112;8.616;2023-06-22T12:15:05;16.20;;;6.33;;
27744;SDS011;61387;48.112;8.616;2023-06-22T12:17:32;15.07;;;6.80;;
27744;SDS011;61387;48.112;8.616;2023-06-22T12:19:58;13.37;;;7.10;;
27744;SDS011;61387;48.112;8.616;2023-06-22T12:22:24;13.20;;;7.40;;
27744;SDS011;61387;48.112;8.616;2023-06-22T12:24:50;12.73;;;7.27;;
27744;SDS011;61387;48.112;8.616;2023-06-22T12:27:16;14.07;;;7.23;;
27744;SDS011;61387;48.112;8.616;2023-06-22T12:29:45;14.77;;;7.32;;
27744;SDS011;61387;48.112;8.616;2023-06-22T12:32:12;16.20;;;6.97;;
27744;SDS011;61387;48.112;8.616;2023-06-22T12:34:38;16.25;;;7.47;;
27744;SDS011;61387;48.112;8.616;2023-06-22T12:37:04;15.88;;;7.40;;
27744;SDS011;61387;48.112;8.616;2023-06-22T12:39:31;14.95;;;6.80;;
27744;SDS011;61387;48.112;8.616;2023-06-22T12:41:57;11.48;;;6.43;;
27744;SDS011;61387;48.112;8.616;2023-06-22T12:44:23;14.65;;;6.50;;
27744;SDS011;61387;48.112;8.616;2023-06-22T12:46:49;9.93;;;6.00;;
27744;SDS011;61387;48.112;8.616;2023-06-22T12:49:15;11.07;;;5.87;;
27744;SDS011;61387;48.112;8.616;2023-06-22T12:51:41;14.65;;;6.60;;
27744;SDS011;61387;48.112;8.616;2023-06-22T12:54:08;12.77;;;7.30;;
27744;SDS011;61387;48.112;8.616;2023-06-22T12:56:34;12.55;;;5.97;;
27744;SDS011;61387;48.112;8.616;2023-06-22T12:59:00;14.93;;;5.90;;
27744;SDS011;61387;48.112;8.616;2023-06-22T13:01:26;13.90;;;5.80;;
27744;SDS011;61387;48.112;8.616;2023-06-22T13:03:53;12.07;;;5.82;;
27744;SDS011;61387;48.112;8.616;2023-06-22T13:06:19;11.95;;;6.10;;
27744;SDS011;61387;48.112;8.616;2023-06-22T13:08:44;14.37;;;6.03;;
27744;SDS011;61387;48.112;8.616;2023-06-22T13:11:10;16.97;;;6.50;;
27744;SDS011;61387;48.112;8.616;2023-06-22T13:13:36;14.87;;;6.10;;
27744;SDS011;61387;48.112;8.616;2023-06-22T13:16:02;13.20;;;6.23;;
27744;SDS011;61387;48.112;8.616;2023-06-22T13:18:28;11.97;;;5.43;;
27744;SDS011;61387;48.112;8.616;2023-06-22T13:20:54;12.47;;;6.00;;
27744;SDS011;61387;48.112;8.616;2023-06-22T13:23:20;13.43;;;5.73;;
27744;SDS011;61387;48.112;8.616;2023-06-22T13:25:47;13.40;;;6.10;;
27744;SDS011;61387;48.112;8.616;2023-06-22T13:28:12;14.68;;;5.85;;
27744;SDS011;61387;48.112;8.616;2023-06-22T13:30:40;14.13;;;5.60;;
27744;SDS011;61387;48.112;8.616;2023-06-22T13:33:06;10.80;;;4.27;;
27744;SDS011;61387;48.112;8.616;2023-06-22T13:35:33;13.00;;;4.80;;
27744;SDS011;61387;48.112;8.616;2023-06-22T13:38:00;10.82;;;4.40;;
27744;SDS011;61387;48.112;8.616;2023-06-22T13:40:26;11.30;;;4.40;;
27744;SDS011;61387;48.112;8.616;2023-06-22T13:42:52;28.47;;;6.80;;
27744;SDS011;61387;48.112;8.616;2023-06-22T13:45:18;12.33;;;4.00;;
27744;SDS011;61387;48.112;8.616;2023-06-22T13:47:45;12.63;;;3.97;;
27744;SDS011;61387;48.112;8.616;2023-06-22T13:50:10;13.67;;;3.90;;
27744;SDS011;61387;48.112;8.616;2023-06-22T13:52:37;11.77;;;4.30;;
27744;SDS011;61387;48.112;8.616;2023-06-22T13:55:03;11.93;;;3.73;;
27744;SDS011;61387;48.112;8.616;2023-06-22T13:57:30;13.88;;;3.78;;
27744;SDS011;61387;48.112;8.616;2023-06-22T13:59:56;13.07;;;4.45;;
27744;SDS011;61387;48.112;8.616;2023-06-22T14:02:22;14.40;;;4.37;;
27744;SDS011;61387;48.112;8.616;2023-06-22T14:04:48;10.53;;;3.80;;
27744;SDS011;61387;48.112;8.616;2023-06-22T14:07:14;14.90;;;4.32;;
27744;SDS011;61387;48.112;8.616;2023-06-22T14:09:40;12.85;;;4.50;;
27744;SDS011;61387;48.112;8.616;2023-06-22T14:12:06;16.20;;;4.33;;
27744;SDS011;61387;48.112;8.616;2023-06-22T14:14:32;15.25;;;4.32;;
27744;SDS011;61387;48.112;8.616;2023-06-22T14:16:59;13.00;;;4.25;;
27744;SDS011;61387;48.112;8.616;2023-06-22T14:19:25;13.27;;;4.57;;
27744;SDS011;61387;48.112;8.616;2023-06-22T14:21:51;12.47;;;3.77;;
27744;SDS011;61387;48.112;8.616;2023-06-22T14:24:17;11.25;;;3.50;;
27744;SDS011;61387;48.112;8.616;2023-06-22T14:26:42;14.23;;;4.27;;
27744;SDS011;61387;48.112;8.616;2023-06-22T14:29:08;12.43;;;4.00;;
27744;SDS011;61387;48.112;8.616;2023-06-22T14:31:34;13.75;;;4.43;;
27744;SDS011;61387;48.112;8.616;2023-06-22T14:34:00;11.35;;;4.25;;